Time;durP1;ratioP1;P1;durP2;ratioP2;P2;SDS_P1;SDS_P2;PMS_P1;PMS_P2;Temp;Humidity;BMP_temperature;BMP_pressure;BME280_temperature;BME280_humidity;BME280_pressure;Samples;Min_cycle;Max_cycle;Signal;HPM_P1;HPM_P2
2022/08/01 00:01:56;;;;;;;12.77;11.77;;;19.00;99.90;;;;;;5046148;28;20545;-72
2022/08/01 00:04:44;;;;;;;12.40;11.40;;;18.90;99.90;;;;;;5039231;28;20917;-72
2022/08/01 00:07:32;;;;;;;12.60;11.60;;;19.00;99.90;;;;;;5035847;28;20536;-72
2022/08/01 00:10:21;;;;;;;11.40;10.50;;;19.00;99.90;;;;;;5039892;28;20534;-72
2022/08/01 00:13:10;;;;;;;12.17;11.17;;;19.00;99.90;;;;;;5045199;28;20878;-72
2022/08/01 00:15:59;;;;;;;11.57;10.57;;;18.90;99.90;;;;;;5040192;28;20489;-72
2022/08/01 00:18:47;;;;;;;12.60;11.60;;;18.90;99.90;;;;;;5044466;28;20454;-72
2022/08/01 00:21:35;;;;;;;11.83;10.83;;;19.00;99.90;;;;;;5049518;28;20446;-72
2022/08/01 00:24:24;;;;;;;13.30;12.30;;;18.90;99.90;;;;;;5042527;28;20474;-72
2022/08/01 00:27:12;;;;;;;13.30;12.20;;;19.00;99.90;;;;;;5043610;28;20568;-72
2022/08/01 00:30:00;;;;;;;13.30;12.23;;;18.90;99.90;;;;;;5039070;28;20541;-72
2022/08/01 00:33:02;;;;;;;13.00;11.90;;;19.00;99.90;;;;;;5043057;28;20467;-72
2022/08/01 00:35:50;;;;;;;13.87;12.67;;;19.00;99.90;;;;;;5046712;28;20521;-72
2022/08/01 00:38:39;;;;;;;13.03;11.93;;;19.00;99.90;;;;;;5036420;28;20541;-72
2022/08/01 00:41:27;;;;;;;12.17;11.10;;;18.90;99.90;;;;;;5031893;28;20540;-72
2022/08/01 00:44:15;;;;;;;11.50;10.60;;;18.90;99.90;;;;;;5037605;28;20611;-72
2022/08/01 00:47:04;;;;;;;12.90;11.80;;;18.90;99.90;;;;;;5039296;28;20510;-72
2022/08/01 00:49:54;;;;;;;13.40;12.07;;;18.90;99.90;;;;;;5035080;28;20539;-72
2022/08/01 00:52:44;;;;;;;12.17;11.27;;;18.90;99.90;;;;;;5034778;28;20528;-72
2022/08/01 00:55:38;;;;;;;11.90;10.90;;;18.90;99.90;;;;;;5031887;28;20555;-72
2022/08/01 00:58:29;;;;;;;12.57;11.47;;;18.90;99.90;;;;;;5033482;28;20599;-72
2022/08/01 01:01:17;;;;;;;12.80;11.60;;;18.90;99.90;;;;;;5038290;28;20508;-72
2022/08/01 01:04:07;;;;;;;13.00;11.83;;;18.90;99.90;;;;;;5035183;28;20485;-71
2022/08/01 01:07:01;;;;;;;12.13;11.13;;;18.90;99.90;;;;;;5035232;28;20474;-72
2022/08/01 01:09:57;;;;;;;12.30;11.20;;;18.80;99.90;;;;;;5035056;28;20454;-72
2022/08/01 01:12:52;;;;;;;11.30;10.40;;;18.90;99.90;;;;;;5032950;28;20973;-72
2022/08/01 01:15:45;;;;;;;11.40;10.50;;;18.90;99.90;;;;;;5031264;28;21095;-72
2022/08/01 01:18:38;;;;;;;11.20;10.27;;;18.80;99.90;;;;;;5035240;28;20528;-72
2022/08/01 01:22:14;;;;;;;11.37;10.47;;;18.90;99.90;;;;;;5032725;28;20461;-71
2022/08/01 01:25:33;;;;;;;11.20;10.10;;;18.80;99.90;;;;;;5034554;28;21131;-71
2022/08/01 01:28:30;;;;;;;11.90;10.80;;;18.80;99.90;;;;;;5036947;28;20492;-72
2022/08/01 01:31:22;;;;;;;11.53;10.43;;;18.80;99.90;;;;;;5035863;28;20463;-72
2022/08/01 01:34:13;;;;;;;11.40;10.30;;;18.80;99.90;;;;;;5036956;28;20454;-72
2022/08/01 01:37:03;;;;;;;10.53;9.63;;;18.70;99.90;;;;;;5038645;28;20565;-72
2022/08/01 01:39:53;;;;;;;11.60;10.43;;;18.70;99.90;;;;;;5032288;28;20540;-72
2022/08/01 01:42:43;;;;;;;10.97;10.07;;;18.70;99.90;;;;;;5042986;28;20601;-71
2022/08/01 01:45:32;;;;;;;11.73;10.63;;;18.70;99.90;;;;;;5031504;28;20595;-72
2022/08/01 01:48:24;;;;;;;11.60;10.50;;;18.70;99.90;;;;;;5032523;28;20538;-71
2022/08/01 01:51:14;;;;;;;12.03;10.90;;;18.70;99.90;;;;;;5035666;28;23482;-72
2022/08/01 01:54:03;;;;;;;9.73;8.80;;;18.70;99.90;;;;;;5035479;28;20482;-72
2022/08/01 01:56:52;;;;;;;11.70;10.70;;;18.70;99.90;;;;;;5077510;22;20495;-74
2022/08/01 01:59:42;;;;;;;11.47;10.27;;;18.70;99.90;;;;;;5096022;28;20452;-73
2022/08/01 02:02:31;;;;;;;11.57;10.40;;;18.70;99.90;;;;;;5101453;28;20538;-74
2022/08/01 02:05:21;;;;;;;11.50;10.40;;;18.70;99.90;;;;;;5100182;27;20470;-74
2022/08/01 02:08:12;;;;;;;11.37;10.27;;;18.70;99.90;;;;;;5079957;28;20445;-74
2022/08/01 02:11:21;;;;;;;10.83;9.73;;;18.70;99.90;;;;;;5086462;28;20734;-74
2022/08/01 02:14:11;;;;;;;9.70;8.77;;;18.60;99.90;;;;;;5081464;28;20594;-74
2022/08/01 02:17:03;;;;;;;11.10;9.17;;;18.60;99.90;;;;;;5082686;28;20531;-75
2022/08/01 02:19:51;;;;;;;9.53;8.70;;;18.60;99.90;;;;;;5081641;28;20733;-76
2022/08/01 02:22:47;;;;;;;9.90;8.90;;;18.60;99.90;;;;;;5077875;28;20547;-75
2022/08/01 02:25:42;;;;;;;9.87;9.00;;;18.60;99.90;;;;;;5082062;28;20544;-73
2022/08/01 02:28:54;;;;;;;10.27;9.37;;;18.60;99.90;;;;;;5084812;28;20482;-74
2022/08/01 02:31:46;;;;;;;9.73;8.97;;;18.60;99.90;;;;;;5077231;28;20542;-73
2022/08/01 02:34:36;;;;;;;8.57;7.77;;;18.60;99.90;;;;;;5072514;28;20454;-74
2022/08/01 02:37:27;;;;;;;8.90;8.03;;;18.50;99.90;;;;;;5075397;28;20794;-74
2022/08/01 02:40:18;;;;;;;8.47;7.67;;;18.60;99.90;;;;;;5073430;28;20479;-73
2022/08/01 02:43:07;;;;;;;11.20;9.50;;;18.50;99.90;;;;;;5068576;28;20450;-75
2022/08/01 02:46:00;;;;;;;8.80;8.03;;;18.50;99.90;;;;;;5071037;28;20690;-74
2022/08/01 02:48:52;;;;;;;10.00;9.10;;;18.50;99.90;;;;;;5079216;28;20548;-74
2022/08/01 02:51:41;;;;;;;9.20;8.50;;;18.50;99.90;;;;;;5072394;28;20870;-75
2022/08/01 02:54:32;;;;;;;10.20;9.30;;;18.50;99.90;;;;;;5070526;28;20872;-75
2022/08/01 02:57:22;;;;;;;10.70;9.80;;;18.50;99.90;;;;;;5076438;28;21030;-74
2022/08/01 03:00:17;;;;;;;9.10;8.30;;;18.40;99.90;;;;;;5074295;28;20929;-74
2022/08/01 03:03:07;;;;;;;9.33;8.43;;;18.40;99.90;;;;;;5071803;28;20483;-74
2022/08/01 03:05:57;;;;;;;9.30;8.50;;;18.50;99.90;;;;;;5072283;28;20500;-74
2022/08/01 03:08:48;;;;;;;9.60;8.80;;;18.50;99.90;;;;;;5068129;28;20453;-76
2022/08/01 03:11:39;;;;;;;8.60;7.97;;;18.50;99.90;;;;;;5074680;28;20549;-74
2022/08/01 03:14:30;;;;;;;8.77;8.17;;;18.50;99.90;;;;;;5073358;28;20457;-75
2022/08/01 03:17:20;;;;;;;8.53;7.80;;;18.50;99.90;;;;;;5075721;28;20480;-74
2022/08/01 03:20:11;;;;;;;9.23;8.53;;;18.40;99.90;;;;;;5069499;28;20540;-75
2022/08/01 03:23:03;;;;;;;8.80;8.10;;;18.40;99.90;;;;;;5071590;28;20478;-75
2022/08/01 03:25:53;;;;;;;8.67;7.87;;;18.40;99.90;;;;;;5075095;28;20551;-74
2022/08/01 03:28:45;;;;;;;9.07;8.17;;;18.40;99.90;;;;;;5077953;28;20523;-74
2022/08/01 03:31:36;;;;;;;10.83;8.20;;;18.30;99.90;;;;;;5077792;28;20481;-75
2022/08/01 03:34:25;;;;;;;8.63;7.83;;;18.30;99.90;;;;;;5079250;28;20497;-74
2022/08/01 03:37:20;;;;;;;8.07;7.37;;;18.40;99.90;;;;;;5077257;28;20466;-74
2022/08/01 03:40:12;;;;;;;7.33;6.73;;;18.30;99.90;;;;;;5077380;28;20548;-74
2022/08/01 03:43:05;;;;;;;6.80;6.30;;;18.40;99.90;;;;;;5071318;28;20567;-74
2022/08/01 03:45:54;;;;;;;6.63;6.13;;;18.30;99.90;;;;;;5074423;28;20465;-74
2022/08/01 03:48:48;;;;;;;6.30;5.80;;;18.40;99.90;;;;;;5066254;28;20445;-74
2022/08/01 03:51:39;;;;;;;9.23;5.87;;;18.30;99.90;;;;;;5072975;28;22006;-74
2022/08/01 03:54:33;;;;;;;6.23;5.73;;;18.30;99.90;;;;;;5071849;28;20494;-74
2022/08/01 03:57:22;;;;;;;5.73;5.23;;;18.40;99.90;;;;;;5076932;28;21140;-75
2022/08/01 04:00:25;;;;;;;7.03;5.60;;;18.30;99.90;;;;;;5074381;28;20452;-74
2022/08/01 04:03:14;;;;;;;6.20;5.60;;;18.30;99.90;;;;;;5073626;28;20444;-74
2022/08/01 04:06:08;;;;;;;5.90;5.40;;;18.30;99.90;;;;;;5074508;28;20600;-75
2022/08/01 04:08:56;;;;;;;6.27;5.77;;;18.30;99.90;;;;;;5076582;28;20532;-75
2022/08/01 04:11:45;;;;;;;5.67;5.17;;;18.30;99.90;;;;;;5073724;28;20452;-74
2022/08/01 04:14:33;;;;;;;5.13;4.73;;;18.30;99.90;;;;;;5072264;28;20457;-75
2022/08/01 04:17:21;;;;;;;5.70;5.17;;;18.40;99.90;;;;;;5076914;28;20600;-74
2022/08/01 04:20:11;;;;;;;5.40;4.90;;;18.30;99.90;;;;;;5073853;28;20452;-74
2022/08/01 04:23:01;;;;;;;5.13;4.63;;;18.40;99.90;;;;;;5072688;28;20941;-75
2022/08/01 04:25:51;;;;;;;5.90;5.40;;;18.40;99.90;;;;;;5081791;28;20566;-75
2022/08/01 04:28:41;;;;;;;5.53;5.03;;;18.30;99.90;;;;;;5073919;28;20605;-74
2022/08/01 04:31:31;;;;;;;5.63;5.13;;;18.40;99.90;;;;;;5078497;28;20479;-74
2022/08/01 04:34:24;;;;;;;5.70;5.30;;;18.40;99.90;;;;;;5070398;28;20459;-75
2022/08/01 04:37:13;;;;;;;7.80;6.37;;;18.40;99.90;;;;;;5073979;28;20569;-75
2022/08/01 04:40:04;;;;;;;5.87;5.27;;;18.40;99.90;;;;;;5078668;28;20528;-74
2022/08/01 04:42:53;;;;;;;5.57;5.07;;;18.40;99.90;;;;;;5070203;28;20574;-75
2022/08/01 04:45:43;;;;;;;6.03;5.23;;;18.40;99.90;;;;;;5073612;28;20485;-74
2022/08/01 04:48:33;;;;;;;5.13;4.63;;;18.40;99.90;;;;;;5071421;28;20515;-73
2022/08/01 04:51:22;;;;;;;5.13;4.73;;;18.40;99.90;;;;;;5072926;28;20485;-74
2022/08/01 04:54:10;;;;;;;5.00;4.50;;;18.40;99.90;;;;;;5076934;28;20476;-74
2022/08/01 04:57:00;;;;;;;5.03;4.30;;;18.40;99.90;;;;;;5071170;28;20477;-74
2022/08/01 04:59:52;;;;;;;5.50;4.07;;;18.40;99.90;;;;;;5074758;28;20510;-74
2022/08/01 05:02:40;;;;;;;5.60;4.27;;;18.40;99.90;;;;;;5064023;28;20496;-75
2022/08/01 05:05:30;;;;;;;4.10;3.80;;;18.40;99.90;;;;;;5065298;28;21406;-75
2022/08/01 05:08:18;;;;;;;5.40;4.00;;;18.40;99.90;;;;;;5075301;28;20466;-75
2022/08/01 05:11:06;;;;;;;3.03;2.83;;;18.40;99.90;;;;;;5073170;28;20453;-77
2022/08/01 05:13:56;;;;;;;3.57;3.03;;;18.40;99.90;;;;;;5065788;28;20445;-74
2022/08/01 05:16:45;;;;;;;2.60;2.37;;;18.40;99.90;;;;;;5076014;28;20568;-81
2022/08/01 05:19:34;;;;;;;4.13;2.20;;;18.40;99.90;;;;;;5067624;28;20804;-76
2022/08/01 05:22:25;;;;;;;3.00;2.80;;;18.40;99.90;;;;;;5064845;28;20888;-74
2022/08/01 05:25:13;;;;;;;2.20;2.00;;;18.40;99.90;;;;;;5066253;28;20561;-77
2022/08/01 05:28:07;;;;;;;3.03;2.20;;;18.40;99.90;;;;;;5066161;28;20476;-75
2022/08/01 05:30:57;;;;;;;2.40;2.20;;;18.40;99.90;;;;;;5066123;28;20449;-75
2022/08/01 05:33:45;;;;;;;2.77;2.60;;;18.40;99.90;;;;;;5065292;28;20600;-76
2022/08/01 05:36:33;;;;;;;5.20;2.70;;;18.40;99.90;;;;;;5064833;28;20584;-76
2022/08/01 05:39:22;;;;;;;3.00;2.70;;;18.40;99.90;;;;;;5057425;28;20564;-75
2022/08/01 05:42:10;;;;;;;2.50;2.30;;;18.40;99.90;;;;;;5052620;28;20655;-75
2022/08/01 05:44:59;;;;;;;3.03;2.60;;;18.40;99.90;;;;;;5043871;28;20480;-75
2022/08/01 05:47:48;;;;;;;2.67;2.47;;;18.40;99.90;;;;;;5049658;28;21024;-75
2022/08/01 05:50:37;;;;;;;2.80;2.60;;;18.40;99.90;;;;;;5042878;28;20946;-77
2022/08/01 05:53:25;;;;;;;4.40;3.23;;;18.40;99.90;;;;;;5046486;28;20488;-75
2022/08/01 05:56:14;;;;;;;2.97;2.67;;;18.40;99.90;;;;;;5050669;28;20493;-78
2022/08/01 05:59:02;;;;;;;3.47;3.17;;;18.40;99.90;;;;;;5053482;28;20569;-76
2022/08/01 06:01:50;;;;;;;3.80;2.83;;;18.40;99.90;;;;;;5056668;28;20995;-74
2022/08/01 06:04:40;;;;;;;4.33;3.10;;;18.40;99.90;;;;;;5035739;28;20469;-76
2022/08/01 06:07:28;;;;;;;3.83;3.00;;;18.40;99.90;;;;;;5041641;28;20473;-74
2022/08/01 06:10:17;;;;;;;5.00;3.10;;;18.40;99.90;;;;;;5063985;28;20464;-74
2022/08/01 06:13:05;;;;;;;4.60;3.70;;;18.40;99.90;;;;;;5061212;28;20461;-75
2022/08/01 06:15:53;;;;;;;3.77;3.47;;;18.40;99.90;;;;;;5062889;28;20559;-76
2022/08/01 06:18:42;;;;;;;4.10;3.60;;;18.40;99.90;;;;;;5058285;28;20543;-75
2022/08/01 06:21:31;;;;;;;5.47;3.97;;;18.50;99.90;;;;;;5058624;28;20614;-74
2022/08/01 06:24:20;;;;;;;5.30;3.80;;;18.50;99.90;;;;;;5061538;28;20568;-76
2022/08/01 06:27:08;;;;;;;4.60;3.40;;;18.40;99.90;;;;;;5066853;28;20474;-74
2022/08/01 06:30:10;;;;;;;4.70;3.90;;;18.40;99.90;;;;;;5056269;28;20994;-77
2022/08/01 06:32:59;;;;;;;5.53;4.20;;;18.40;99.90;;;;;;5059989;28;21209;-75
2022/08/01 06:35:48;;;;;;;6.70;5.43;;;18.40;99.90;;;;;;5062463;28;20478;-75
2022/08/01 06:38:38;;;;;;;7.47;6.13;;;18.40;99.90;;;;;;5058055;28;20803;-76
2022/08/01 06:41:27;;;;;;;6.90;6.20;;;18.40;99.90;;;;;;5057453;28;20441;-77
2022/08/01 06:44:15;;;;;;;10.07;6.97;;;18.40;99.90;;;;;;5054212;28;20447;-75
2022/08/01 06:47:03;;;;;;;7.80;7.10;;;18.40;99.90;;;;;;5071028;28;20569;-74
2022/08/01 06:49:51;;;;;;;8.23;7.53;;;18.40;99.90;;;;;;5058058;28;20598;-75
2022/08/01 06:52:40;;;;;;;9.67;7.90;;;18.40;99.90;;;;;;5059682;28;20546;-75
2022/08/01 06:55:29;;;;;;;11.00;8.40;;;18.40;99.90;;;;;;5066047;28;20456;-76
2022/08/01 06:58:18;;;;;;;8.90;8.10;;;18.40;99.90;;;;;;5060723;28;20474;-76
2022/08/01 07:01:07;;;;;;;9.37;8.60;;;18.50;99.90;;;;;;5065080;28;20510;-76
2022/08/01 07:03:55;;;;;;;9.77;8.90;;;18.50;99.90;;;;;;5070719;28;20602;-74
2022/08/01 07:06:44;;;;;;;14.80;9.33;;;18.40;99.90;;;;;;5054260;28;20514;-75
2022/08/01 07:09:32;;;;;;;10.17;9.17;;;18.50;99.90;;;;;;5056365;28;20486;-74
2022/08/01 07:12:22;;;;;;;10.00;9.03;;;18.40;99.90;;;;;;5053190;28;20514;-74
2022/08/01 07:15:11;;;;;;;9.67;8.67;;;18.40;99.90;;;;;;5059271;28;20548;-74
2022/08/01 07:18:03;;;;;;;9.43;8.33;;;18.40;99.90;;;;;;5066522;28;20441;-74
2022/08/01 07:20:51;;;;;;;10.53;7.60;;;18.40;99.90;;;;;;5062009;28;20475;-76
2022/08/01 07:23:40;;;;;;;9.23;8.33;;;18.40;99.90;;;;;;5059328;28;20480;-77
2022/08/01 07:26:33;;;;;;;8.50;7.80;;;18.40;99.90;;;;;;5052333;28;21424;-76
2022/08/01 07:29:24;;;;;;;9.23;8.33;;;18.30;99.90;;;;;;5053010;28;20785;-74
2022/08/01 07:32:12;;;;;;;15.37;10.87;;;18.40;99.90;;;;;;5058233;28;20452;-74
2022/08/01 07:35:01;;;;;;;12.47;9.37;;;18.30;99.90;;;;;;5057929;28;20471;-76
2022/08/01 07:37:49;;;;;;;11.50;9.03;;;18.30;99.90;;;;;;5056497;28;20659;-74
2022/08/01 07:40:37;;;;;;;13.03;10.27;;;18.30;99.90;;;;;;5053176;28;20461;-75
2022/08/01 07:43:26;;;;;;;11.00;9.60;;;18.40;99.90;;;;;;5058939;28;20953;-74
2022/08/01 07:46:16;;;;;;;11.90;9.77;;;18.40;99.90;;;;;;5054628;28;20868;-74
2022/08/01 07:49:04;;;;;;;14.37;9.00;;;18.40;99.90;;;;;;5060934;28;20496;-74
2022/08/01 07:51:54;;;;;;;9.03;7.67;;;18.40;99.90;;;;;;5060719;28;20964;-74
2022/08/01 07:54:51;;;;;;;9.30;8.40;;;18.40;99.90;;;;;;5050532;28;20499;-76
2022/08/01 07:57:41;;;;;;;12.00;8.63;;;18.40;99.90;;;;;;5087831;22;20498;-74
2022/08/01 08:00:29;;;;;;;10.27;7.77;;;18.40;99.90;;;;;;5079913;27;20580;-75
2022/08/01 08:03:20;;;;;;;10.10;5.60;;;18.50;99.90;;;;;;5076135;27;20459;-74
2022/08/01 08:06:08;;;;;;;5.93;5.20;;;18.50;99.90;;;;;;5089854;28;20452;-74
2022/08/01 08:08:56;;;;;;;7.37;4.37;;;18.60;99.90;;;;;;5091626;27;20917;-74
2022/08/01 08:11:45;;;;;;;8.63;4.27;;;18.60;99.90;;;;;;5088199;28;20496;-75
2022/08/01 08:14:35;;;;;;;12.20;4.00;;;18.60;99.90;;;;;;5098883;28;20496;-75
2022/08/01 08:17:23;;;;;;;6.77;3.77;;;18.50;99.90;;;;;;5093099;28;20476;-75
2022/08/01 08:20:13;;;;;;;8.47;3.80;;;18.50;99.90;;;;;;5098381;27;20998;-77
2022/08/01 08:24:19;;;;;;;6.43;3.70;;;18.60;99.90;;;;;;5076912;27;20638;-78
2022/08/01 08:26:30;;;;;;;7.77;4.10;;;18.60;99.90;;;;;;5081804;28;20892;-77
2022/08/01 08:29:19;;;;;;;9.27;3.90;;;18.60;99.90;;;;;;5084159;27;20452;-77
2022/08/01 08:32:08;;;;;;;8.10;3.43;;;18.60;99.90;;;;;;5064815;28;20460;-76
2022/08/01 08:34:57;;;;;;;5.10;4.13;;;18.60;99.90;;;;;;5100520;27;20457;-74
2022/08/01 08:37:47;;;;;;;5.90;3.53;;;18.70;99.90;;;;;;5098552;28;20460;-74
2022/08/01 08:40:37;;;;;;;5.90;3.37;;;18.60;99.90;;;;;;5091509;28;20467;-75
2022/08/01 08:43:27;;;;;;;5.50;3.73;;;18.60;99.90;;;;;;5086968;28;21008;-74
2022/08/01 08:46:16;;;;;;;5.53;4.00;;;18.70;99.90;;;;;;5095683;27;20448;-75
2022/08/01 08:49:18;;;;;;;4.63;3.20;;;18.70;99.90;;;;;;5090285;27;20452;-75
2022/08/01 08:52:07;;;;;;;4.30;3.33;;;18.60;99.90;;;;;;5099027;27;20451;-74
2022/08/01 08:54:59;;;;;;;4.33;3.00;;;18.60;99.90;;;;;;5099325;27;20879;-77
2022/08/01 08:57:48;;;;;;;4.37;3.20;;;18.60;99.90;;;;;;5093433;27;20487;-77
2022/08/01 09:00:36;;;;;;;5.70;3.23;;;18.70;99.90;;;;;;5098542;27;20476;-76
2022/08/01 09:03:24;;;;;;;4.73;3.70;;;18.70;99.90;;;;;;5102750;27;20529;-77
2022/08/01 09:06:13;;;;;;;7.87;3.63;;;18.80;99.90;;;;;;5097960;27;20456;-77
2022/08/01 09:09:02;;;;;;;4.07;3.23;;;18.80;99.90;;;;;;5101989;28;20480;-76
2022/08/01 09:11:51;;;;;;;7.50;3.30;;;18.90;99.90;;;;;;5084398;27;21284;-77
2022/08/01 09:14:46;;;;;;;6.63;3.30;;;18.80;99.90;;;;;;5086461;28;22155;-78
2022/08/01 09:17:42;;;;;;;6.57;2.90;;;18.90;99.90;;;;;;5100889;28;20494;-77
2022/08/01 09:20:34;;;;;;;4.37;3.07;;;18.90;99.90;;;;;;5099749;28;20471;-76
2022/08/01 09:23:32;;;;;;;4.87;3.00;;;18.90;99.90;;;;;;5090652;28;20535;-76
2022/08/01 09:26:28;;;;;;;7.10;4.07;;;18.90;99.90;;;;;;5088078;28;21166;-77
2022/08/01 09:29:22;;;;;;;6.20;3.03;;;19.00;99.90;;;;;;5093878;28;20459;-77
2022/08/01 09:32:25;;;;;;;5.10;2.57;;;19.00;99.90;;;;;;5089736;28;21254;-77
2022/08/01 09:35:27;;;;;;;7.50;3.10;;;19.10;99.90;;;;;;5093971;28;20468;-77
2022/08/01 09:38:21;;;;;;;5.13;2.47;;;19.10;99.90;;;;;;5095462;28;20890;-77
2022/08/01 09:41:11;;;;;;;6.10;2.23;;;19.10;99.90;;;;;;5098622;28;20471;-77
2022/08/01 09:44:01;;;;;;;5.63;2.70;;;19.10;99.90;;;;;;5099463;28;20951;-77
2022/08/01 09:46:53;;;;;;;5.83;2.50;;;19.20;99.90;;;;;;5093838;28;20627;-77
2022/08/01 09:49:43;;;;;;;5.87;2.87;;;19.20;99.90;;;;;;5098554;27;20479;-77
2022/08/01 09:52:39;;;;;;;8.03;2.93;;;19.30;99.90;;;;;;5086897;27;20454;-77
2022/08/01 09:55:28;;;;;;;5.53;3.03;;;19.30;99.90;;;;;;5097410;28;20456;-77
2022/08/01 09:58:16;;;;;;;7.50;3.30;;;19.40;99.90;;;;;;5088253;28;20520;-77
2022/08/01 10:01:07;;;;;;;6.20;3.03;;;19.40;99.90;;;;;;5090083;28;20529;-77
2022/08/01 10:04:07;;;;;;;6.33;3.40;;;19.40;99.90;;;;;;5093859;28;20460;-77
2022/08/01 10:07:05;;;;;;;5.40;3.87;;;19.50;99.90;;;;;;5099074;27;20967;-75
2022/08/01 10:09:54;;;;;;;5.00;3.83;;;19.60;99.90;;;;;;5091853;28;20472;-75
2022/08/01 10:12:43;;;;;;;9.10;4.57;;;19.70;99.90;;;;;;5095642;28;20550;-75
2022/08/01 10:15:33;;;;;;;5.90;3.83;;;19.90;99.90;;;;;;5095043;27;20463;-75
2022/08/01 10:18:25;;;;;;;8.93;4.43;;;20.00;99.90;;;;;;5090370;28;21007;-76
2022/08/01 10:21:15;;;;;;;6.13;3.90;;;20.00;99.90;;;;;;5084773;28;20499;-75
2022/08/01 10:24:24;;;;;;;7.73;4.20;;;20.10;99.90;;;;;;5095901;27;20504;-75
2022/08/01 10:27:15;;;;;;;5.93;3.90;;;20.20;99.90;;;;;;5085838;28;20482;-75
2022/08/01 10:30:12;;;;;;;10.43;4.40;;;20.20;99.90;;;;;;5096177;28;20559;-75
2022/08/01 10:33:08;;;;;;;4.63;3.97;;;20.30;99.90;;;;;;5096447;28;20454;-75
2022/08/01 10:36:02;;;;;;;9.67;4.70;;;20.40;99.90;;;;;;5094617;27;20985;-75
2022/08/01 10:38:57;;;;;;;9.90;4.13;;;20.50;99.90;;;;;;5085907;28;20860;-75
2022/08/01 10:41:47;;;;;;;6.00;3.93;;;20.60;99.90;;;;;;5084613;27;20472;-75
2022/08/01 10:44:36;;;;;;;5.30;4.50;;;20.60;99.90;;;;;;5082006;27;20551;-75
2022/08/01 10:47:32;;;;;;;8.43;3.77;;;20.70;99.90;;;;;;5085941;27;20981;-74
2022/08/01 10:50:42;;;;;;;6.50;3.20;;;20.70;99.90;;;;;;5088099;28;20556;-73
2022/08/01 10:53:32;;;;;;;4.93;3.63;;;20.80;99.90;;;;;;5090992;28;20458;-73
2022/08/01 10:56:43;;;;;;;4.13;2.87;;;20.90;99.90;;;;;;5087270;28;21077;-73
2022/08/01 10:59:31;;;;;;;5.97;3.60;;;20.90;99.90;;;;;;5086873;28;20553;-75
2022/08/01 11:02:43;;;;;;;6.60;2.70;;;21.00;99.90;;;;;;5088925;28;21031;-75
2022/08/01 11:05:34;;;;;;;4.87;3.10;;;21.00;99.90;;;;;;5095004;28;20615;-75
2022/08/01 11:08:25;;;;;;;4.10;2.50;;;21.10;99.90;;;;;;5099305;28;20460;-75
2022/08/01 11:11:13;;;;;;;4.90;2.27;;;21.10;99.90;;;;;;5086137;28;20981;-77
2022/08/01 11:14:06;;;;;;;4.30;2.43;;;21.20;99.90;;;;;;5087870;27;20463;-77
2022/08/01 11:16:57;;;;;;;3.47;2.63;;;21.20;99.90;;;;;;5086540;28;20481;-77
2022/08/01 11:20:04;;;;;;;2.50;2.00;;;21.30;99.90;;;;;;5091909;28;20827;-77
2022/08/01 11:23:28;;;;;;;3.40;2.10;;;21.40;99.90;;;;;;5093791;28;20815;-76
2022/08/01 11:26:23;;;;;;;3.40;2.17;;;21.50;99.90;;;;;;5092813;28;20495;-75
2022/08/01 11:29:19;;;;;;;3.37;2.10;;;21.60;99.90;;;;;;5095408;28;20455;-74
2022/08/01 11:32:25;;;;;;;5.50;2.17;;;21.60;99.90;;;;;;5082056;28;20550;-72
2022/08/01 11:35:13;;;;;;;4.83;2.23;;;21.70;99.90;;;;;;5084675;28;20811;-74
2022/08/01 11:38:27;;;;;;;4.73;2.40;;;21.80;99.90;;;;;;5096111;28;20680;-75
2022/08/01 11:41:19;;;;;;;3.70;1.77;;;21.90;99.90;;;;;;5086560;28;20478;-75
2022/08/01 11:44:27;;;;;;;4.47;2.07;;;21.90;99.90;;;;;;5087434;28;20526;-75
2022/08/01 11:47:18;;;;;;;5.97;2.40;;;22.00;99.90;;;;;;5087966;28;20556;-75
2022/08/01 11:50:31;;;;;;;4.07;2.10;;;22.00;99.90;;;;;;5095998;28;20448;-75
2022/08/01 11:53:20;;;;;;;3.43;1.67;;;22.20;99.90;;;;;;5090326;28;20970;-75
2022/08/01 11:56:09;;;;;;;4.70;1.87;;;22.20;99.90;;;;;;5090883;28;20451;-76
2022/08/01 11:59:00;;;;;;;5.40;2.40;;;22.30;99.90;;;;;;5092246;28;20542;-75
2022/08/01 12:01:52;;;;;;;4.77;1.90;;;22.40;99.90;;;;;;5084092;28;20980;-75
2022/08/01 12:04:53;;;;;;;4.50;1.63;;;22.50;99.90;;;;;;5080622;28;20460;-75
2022/08/01 12:07:44;;;;;;;4.90;1.97;;;22.50;99.90;;;;;;5080298;28;20946;-76
2022/08/01 12:10:36;;;;;;;3.10;1.83;;;22.50;99.90;;;;;;5093089;28;20448;-76
2022/08/01 12:13:45;;;;;;;4.50;1.80;;;22.60;99.90;;;;;;5096883;28;20435;-76
2022/08/01 12:16:33;;;;;;;2.10;1.57;;;22.70;99.90;;;;;;5092183;27;20512;-76
2022/08/01 12:19:25;;;;;;;3.43;1.90;;;22.70;99.90;;;;;;5094170;27;20587;-76
2022/08/01 12:22:14;;;;;;;2.37;1.70;;;22.70;99.90;;;;;;5101372;27;20506;-75
2022/08/01 12:25:07;;;;;;;4.30;1.50;;;22.80;99.90;;;;;;5089070;27;20448;-76
2022/08/01 12:27:56;;;;;;;4.90;1.70;;;22.90;99.90;;;;;;5099929;28;20507;-75
2022/08/01 12:30:48;;;;;;;5.53;2.07;;;22.90;99.90;;;;;;5098452;27;20490;-76
2022/08/01 12:33:36;;;;;;;5.57;1.87;;;23.00;99.90;;;;;;5097548;28;20994;-76
2022/08/01 12:36:30;;;;;;;5.23;1.83;;;23.00;99.90;;;;;;5096005;27;20539;-76
2022/08/01 12:39:19;;;;;;;4.70;1.60;;;23.00;99.90;;;;;;5092040;28;20449;-75
2022/08/01 12:42:10;;;;;;;5.63;1.83;;;23.00;99.90;;;;;;5078202;28;20520;-76
2022/08/01 12:44:58;;;;;;;6.53;2.40;;;23.00;99.90;;;;;;5094183;27;20472;-76
2022/08/01 12:47:48;;;;;;;4.90;1.80;;;23.10;99.90;;;;;;5082833;28;20472;-75
2022/08/01 12:50:41;;;;;;;3.17;1.50;;;23.30;99.90;;;;;;5094163;27;20451;-75
2022/08/01 12:53:34;;;;;;;4.50;2.10;;;23.40;99.90;;;;;;5091838;28;20508;-76
2022/08/01 12:56:32;;;;;;;3.83;1.47;;;23.50;99.90;;;;;;5089868;27;20471;-78
2022/08/01 12:59:23;;;;;;;5.10;1.90;;;23.40;99.90;;;;;;5084421;28;20448;-77
2022/08/01 13:02:12;;;;;;;3.73;2.00;;;23.40;99.90;;;;;;5093790;27;20995;-77
2022/08/01 13:05:00;;;;;;;6.93;2.13;;;23.50;99.90;;;;;;5089952;27;20545;-75
2022/08/01 13:07:51;;;;;;;4.10;1.70;;;23.50;99.90;;;;;;5086297;27;21122;-79
2022/08/01 13:10:41;;;;;;;6.77;1.80;;;23.60;99.90;;;;;;5093527;27;20447;-77
2022/08/01 13:13:40;;;;;;;3.50;1.90;;;23.80;99.90;;;;;;5095160;27;20451;-77
2022/08/01 13:16:29;;;;;;;3.83;1.77;;;24.00;99.90;;;;;;5086531;27;20980;-78
2022/08/01 13:19:44;;;;;;;3.40;1.60;;;24.00;99.90;;;;;;5097979;27;21014;-76
2022/08/01 13:22:33;;;;;;;4.23;1.70;;;23.90;99.90;;;;;;5099624;27;20590;-77
2022/08/01 13:25:22;;;;;;;3.60;1.60;;;24.00;99.90;;;;;;5089853;27;20538;-79
2022/08/01 13:28:20;;;;;;;2.40;1.27;;;24.20;99.90;;;;;;5089467;27;20475;-79
2022/08/01 13:31:10;;;;;;;7.20;2.10;;;24.30;99.90;;;;;;5093458;27;20453;-79
2022/08/01 13:33:58;;;;;;;3.23;1.83;;;24.40;99.90;;;;;;5092600;28;20492;-77
2022/08/01 13:36:48;;;;;;;3.20;2.03;;;24.40;99.90;;;;;;5100937;28;20996;-79
2022/08/01 13:39:44;;;;;;;3.20;1.80;;;24.50;99.90;;;;;;5092777;28;20452;-77
2022/08/01 13:42:32;;;;;;;1.90;1.60;;;24.60;99.90;;;;;;5092851;28;20468;-75
2022/08/01 13:45:22;;;;;;;2.10;1.50;;;24.60;99.90;;;;;;5095037;27;20467;-77
2022/08/01 13:48:13;;;;;;;3.30;1.50;;;24.50;99.90;;;;;;5078301;27;20479;-78
2022/08/01 13:51:06;;;;;;;3.90;1.70;;;24.50;99.90;;;;;;5089927;28;20907;-76
2022/08/01 13:54:09;;;;;;;4.30;1.80;;;24.50;99.90;;;;;;5100657;28;20492;-77
2022/08/01 13:56:57;;;;;;;6.23;1.70;;;24.40;99.90;;;;;;5114232;22;20561;-79
2022/08/01 13:59:46;;;;;;;3.10;1.40;;;24.40;99.90;;;;;;5076341;27;20588;-71
2022/08/01 14:02:36;;;;;;;3.37;1.30;;;24.50;99.90;;;;;;5095680;28;20502;-71
2022/08/01 14:05:24;;;;;;;4.67;1.87;;;24.70;99.90;;;;;;5097802;27;20972;-71
2022/08/01 14:08:15;;;;;;;1.77;1.47;;;24.80;99.90;;;;;;5095798;27;20530;-73
2022/08/01 14:11:05;;;;;;;1.80;1.30;;;25.10;99.90;;;;;;5088027;27;20464;-72
2022/08/01 14:13:54;;;;;;;3.37;1.80;;;25.10;99.90;;;;;;5088482;27;20448;-71
2022/08/01 14:16:45;;;;;;;3.43;1.50;;;25.10;99.90;;;;;;5081838;28;20915;-71
2022/08/01 14:19:35;;;;;;;3.50;1.43;;;25.00;99.90;;;;;;5091872;28;20486;-73
2022/08/01 14:22:26;;;;;;;4.37;1.60;;;25.20;99.90;;;;;;5092954;27;21029;-73
2022/08/01 14:25:14;;;;;;;2.20;1.43;;;25.40;99.90;;;;;;5091128;28;20454;-75
2022/08/01 14:28:23;;;;;;;3.20;1.70;;;25.50;99.90;;;;;;5088555;28;20509;-73
2022/08/01 14:31:11;;;;;;;7.23;1.50;;;25.50;99.90;;;;;;5076715;27;20465;-74
2022/08/01 14:34:00;;;;;;;2.33;1.60;;;25.30;99.90;;;;;;5077777;27;20464;-76
2022/08/01 14:36:53;;;;;;;3.53;1.40;;;25.40;99.90;;;;;;5077244;28;20499;-74
2022/08/01 14:39:43;;;;;;;1.80;1.50;;;25.60;99.90;;;;;;5082848;28;20898;-74
2022/08/01 14:42:43;;;;;;;3.30;1.60;;;25.90;99.90;;;;;;5078237;28;20563;-74
2022/08/01 14:45:32;;;;;;;3.70;1.97;;;26.20;99.90;;;;;;5088314;28;20569;-74
2022/08/01 14:48:20;;;;;;;3.53;1.40;;;26.30;99.90;;;;;;5077565;28;21007;-74
2022/08/01 14:51:09;;;;;;;2.40;1.60;;;26.30;99.90;;;;;;5087963;27;20860;-73